sensor_id;sensor_type;location;lat;lon;timestamp;temperature;humidity
9730;DHT22;4904;49.152;11.004;2023-11-19T00:00:06;6.40;99.90
9730;DHT22;4904;49.152;11.004;2023-11-19T00:02:38;6.40;99.90
9730;DHT22;4904;49.152;11.004;2023-11-19T00:05:06;6.50;99.90
9730;DHT22;4904;49.152;11.004;2023-11-19T00:07:35;6.50;99.90
9730;DHT22;4904;49.152;11.004;2023-11-19T00:10:03;6.50;99.90
9730;DHT22;4904;49.152;11.004;2023-11-19T00:12:32;6.50;99.90
9730;DHT22;4904;49.152;11.004;2023-11-19T00:14:59;6.60;99.90
9730;DHT22;4904;49.152;11.004;2023-11-19T00:17:26;6.60;99.90
9730;DHT22;4904;49.152;11.004;2023-11-19T00:19:55;6.50;99.90
9730;DHT22;4904;49.152;11.004;2023-11-19T00:22:21;6.50;99.90
9730;DHT22;4904;49.152;11.004;2023-11-19T00:24:48;6.50;99.90
9730;DHT22;4904;49.152;11.004;2023-11-19T00:27:16;6.50;99.90
9730;DHT22;4904;49.152;11.004;2023-11-19T00:29:43;6.50;99.90
9730;DHT22;4904;49.152;11.004;2023-11-19T00:32:11;6.60;99.90
9730;DHT22;4904;49.152;11.004;2023-11-19T00:34:38;6.60;99.90
9730;DHT22;4904;49.152;11.004;2023-11-19T00:37:06;6.60;99.90
9730;DHT22;4904;49.152;11.004;2023-11-19T00:39:33;6.60;99.90
9730;DHT22;4904;49.152;11.004;2023-11-19T00:42:00;6.60;99.90
9730;DHT22;4904;49.152;11.004;2023-11-19T00:44:27;6.60;99.90
9730;DHT22;4904;49.152;11.004;2023-11-19T00:46:54;6.60;99.90
9730;DHT22;4904;49.152;11.004;2023-11-19T00:49:20;6.60;99.90
9730;DHT22;4904;49.152;11.004;2023-11-19T00:51:47;6.60;99.90
9730;DHT22;4904;49.152;11.004;2023-11-19T00:54:16;6.60;99.90
9730;DHT22;4904;49.152;11.004;2023-11-19T00:56:43;6.60;99.90
9730;DHT22;4904;49.152;11.004;2023-11-19T00:59:10;6.60;99.90
9730;DHT22;4904;49.152;11.004;2023-11-19T01:01:38;6.60;99.90
9730;DHT22;4904;49.152;11.004;2023-11-19T01:04:05;6.60;99.90
9730;DHT22;4904;49.152;11.004;2023-11-19T01:06:32;6.60;99.90
9730;DHT22;4904;49.152;11.004;2023-11-19T01:08:59;6.70;99.90
9730;DHT22;4904;49.152;11.004;2023-11-19T01:11:27;6.70;99.90
9730;DHT22;4904;49.152;11.004;2023-11-19T01:13:54;6.70;99.90
9730;DHT22;4904;49.152;11.004;2023-11-19T01:16:21;6.70;99.90
9730;DHT22;4904;49.152;11.004;2023-11-19T01:18:48;6.70;99.90
9730;DHT22;4904;49.152;11.004;2023-11-19T01:21:15;6.70;99.90
9730;DHT22;4904;49.152;11.004;2023-11-19T01:23:43;6.70;99.90
9730;DHT22;4904;49.152;11.004;2023-11-19T01:26:10;6.70;99.90
9730;DHT22;4904;49.152;11.004;2023-11-19T01:28:39;6.80;99.90
9730;DHT22;4904;49.152;11.004;2023-11-19T01:31:10;6.80;99.90
9730;DHT22;4904;49.152;11.004;2023-11-19T01:33:38;6.70;99.90
9730;DHT22;4904;49.152;11.004;2023-11-19T01:36:06;6.80;99.90
9730;DHT22;4904;49.152;11.004;2023-11-19T01:38:33;6.80;99.90
9730;DHT22;4904;49.152;11.004;2023-11-19T01:41:01;6.80;99.90
9730;DHT22;4904;49.152;11.004;2023-11-19T01:43:32;6.70;99.90
9730;DHT22;4904;49.152;11.004;2023-11-19T01:46:01;6.70;99.90
9730;DHT22;4904;49.152;11.004;2023-11-19T01:48:29;6.80;99.90
9730;DHT22;4904;49.152;11.004;2023-11-19T01:50:57;6.80;99.90
9730;DHT22;4904;49.152;11.004;2023-11-19T01:53:24;6.90;99.90
9730;DHT22;4904;49.152;11.004;2023-11-19T01:55:51;6.90;99.90
9730;DHT22;4904;49.152;11.004;2023-11-19T01:58:19;6.90;99.90
9730;DHT22;4904;49.152;11.004;2023-11-19T02:00:46;6.90;99.90
9730;DHT22;4904;49.152;11.004;2023-11-19T02:03:15;7.00;99.90
9730;DHT22;4904;49.152;11.004;2023-11-19T02:05:42;7.00;99.90
9730;DHT22;4904;49.152;11.004;2023-11-19T02:08:09;7.00;99.90
9730;DHT22;4904;49.152;11.004;2023-11-19T02:10:39;7.00;99.90
9730;DHT22;4904;49.152;11.004;2023-11-19T02:13:06;6.90;99.90
9730;DHT22;4904;49.152;11.004;2023-11-19T02:15:33;7.00;99.90
9730;DHT22;4904;49.152;11.004;2023-11-19T02:18:19;7.00;99.90
9730;DHT22;4904;49.152;11.004;2023-11-19T02:20:47;7.00;99.90
9730;DHT22;4904;49.152;11.004;2023-11-19T02:23:14;7.00;99.90
9730;DHT22;4904;49.152;11.004;2023-11-19T02:25:41;7.00;99.90
9730;DHT22;4904;49.152;11.004;2023-11-19T02:28:10;7.00;99.90
9730;DHT22;4904;49.152;11.004;2023-11-19T02:30:38;7.00;99.90
9730;DHT22;4904;49.152;11.004;2023-11-19T02:33:06;7.00;99.90
9730;DHT22;4904;49.152;11.004;2023-11-19T02:35:34;7.00;99.90
9730;DHT22;4904;49.152;11.004;2023-11-19T02:38:01;7.00;99.90
9730;DHT22;4904;49.152;11.004;2023-11-19T02:40:29;7.10;99.90
9730;DHT22;4904;49.152;11.004;2023-11-19T02:42:56;7.00;99.90
9730;DHT22;4904;49.152;11.004;2023-11-19T02:45:25;7.20;99.90
9730;DHT22;4904;49.152;11.004;2023-11-19T02:47:52;7.00;99.90
9730;DHT22;4904;49.152;11.004;2023-11-19T02:50:20;7.10;99.90
9730;DHT22;4904;49.152;11.004;2023-11-19T02:52:52;7.00;99.90
9730;DHT22;4904;49.152;11.004;2023-11-19T02:55:19;7.10;99.90
9730;DHT22;4904;49.152;11.004;2023-11-19T02:57:46;7.00;99.90
9730;DHT22;4904;49.152;11.004;2023-11-19T03:00:15;7.10;99.90
9730;DHT22;4904;49.152;11.004;2023-11-19T03:02:44;7.10;99.90
9730;DHT22;4904;49.152;11.004;2023-11-19T03:05:13;7.10;99.90
9730;DHT22;4904;49.152;11.004;2023-11-19T03:07:42;7.20;99.90
9730;DHT22;4904;49.152;11.004;2023-11-19T03:10:10;7.30;99.90
9730;DHT22;4904;49.152;11.004;2023-11-19T03:12:40;7.30;99.90
9730;DHT22;4904;49.152;11.004;2023-11-19T03:15:07;7.30;99.90
9730;DHT22;4904;49.152;11.004;2023-11-19T03:17:35;7.30;99.90
9730;DHT22;4904;49.152;11.004;2023-11-19T03:20:06;7.40;99.90
9730;DHT22;4904;49.152;11.004;2023-11-19T03:22:36;7.30;99.90
9730;DHT22;4904;49.152;11.004;2023-11-19T03:25:04;7.40;99.90
9730;DHT22;4904;49.152;11.004;2023-11-19T03:27:33;7.40;99.90
9730;DHT22;4904;49.152;11.004;2023-11-19T03:30:01;7.30;99.90
9730;DHT22;4904;49.152;11.004;2023-11-19T03:32:30;7.50;99.90
9730;DHT22;4904;49.152;11.004;2023-11-19T03:34:57;7.50;99.90
9730;DHT22;4904;49.152;11.004;2023-11-19T03:37:26;7.50;99.90
9730;DHT22;4904;49.152;11.004;2023-11-19T03:39:53;7.60;99.90
9730;DHT22;4904;49.152;11.004;2023-11-19T03:42:20;7.50;99.90
9730;DHT22;4904;49.152;11.004;2023-11-19T03:44:47;7.60;99.90
9730;DHT22;4904;49.152;11.004;2023-11-19T03:47:16;7.60;99.90
9730;DHT22;4904;49.152;11.004;2023-11-19T03:49:42;7.70;99.90
9730;DHT22;4904;49.152;11.004;2023-11-19T03:52:14;7.70;99.90
9730;DHT22;4904;49.152;11.004;2023-11-19T03:54:42;7.70;99.90
9730;DHT22;4904;49.152;11.004;2023-11-19T03:57:09;7.80;99.90
9730;DHT22;4904;49.152;11.004;2023-11-19T03:59:37;7.80;99.90
9730;DHT22;4904;49.152;11.004;2023-11-19T04:02:03;7.80;99.90
9730;DHT22;4904;49.152;11.004;2023-11-19T04:04:30;7.90;99.90
9730;DHT22;4904;49.152;11.004;2023-11-19T04:06:57;7.80;99.90
9730;DHT22;4904;49.152;11.004;2023-11-19T04:09:26;7.90;99.90
9730;DHT22;4904;49.152;11.004;2023-11-19T04:11:54;7.90;99.90
9730;DHT22;4904;49.152;11.004;2023-11-19T04:14:21;7.70;99.90
9730;DHT22;4904;49.152;11.004;2023-11-19T04:16:48;7.70;99.90
9730;DHT22;4904;49.152;11.004;2023-11-19T04:19:15;7.70;99.90
9730;DHT22;4904;49.152;11.004;2023-11-19T04:21:42;7.60;99.90
9730;DHT22;4904;49.152;11.004;2023-11-19T04:24:09;7.60;99.90
9730;DHT22;4904;49.152;11.004;2023-11-19T04:26:40;7.60;99.90
9730;DHT22;4904;49.152;11.004;2023-11-19T04:29:11;7.70;99.90
9730;DHT22;4904;49.152;11.004;2023-11-19T04:31:38;7.70;99.90
9730;DHT22;4904;49.152;11.004;2023-11-19T04:34:05;7.60;99.90
9730;DHT22;4904;49.152;11.004;2023-11-19T04:36:32;7.70;99.90
9730;DHT22;4904;49.152;11.004;2023-11-19T04:38:59;7.70;99.90
9730;DHT22;4904;49.152;11.004;2023-11-19T04:41:26;7.60;99.90
9730;DHT22;4904;49.152;11.004;2023-11-19T04:43:54;7.80;99.90
9730;DHT22;4904;49.152;11.004;2023-11-19T04:46:22;7.80;99.90
9730;DHT22;4904;49.152;11.004;2023-11-19T04:48:50;7.80;99.90
9730;DHT22;4904;49.152;11.004;2023-11-19T04:51:16;7.90;99.90
9730;DHT22;4904;49.152;11.004;2023-11-19T04:53:44;8.00;99.90
9730;DHT22;4904;49.152;11.004;2023-11-19T04:56:11;7.90;99.90
9730;DHT22;4904;49.152;11.004;2023-11-19T04:58:39;8.10;99.90
9730;DHT22;4904;49.152;11.004;2023-11-19T05:01:06;8.00;99.90
9730;DHT22;4904;49.152;11.004;2023-11-19T05:03:34;8.00;99.90
9730;DHT22;4904;49.152;11.004;2023-11-19T05:06:01;8.00;99.90
9730;DHT22;4904;49.152;11.004;2023-11-19T05:08:28;8.00;99.90
9730;DHT22;4904;49.152;11.004;2023-11-19T05:10:55;8.10;99.90
9730;DHT22;4904;49.152;11.004;2023-11-19T05:13:23;8.10;99.90
9730;DHT22;4904;49.152;11.004;2023-11-19T05:15:50;8.10;99.90
9730;DHT22;4904;49.152;11.004;2023-11-19T05:18:16;8.20;99.90
9730;DHT22;4904;49.152;11.004;2023-11-19T05:20:45;8.30;99.90
9730;DHT22;4904;49.152;11.004;2023-11-19T05:23:12;8.20;99.90
9730;DHT22;4904;49.152;11.004;2023-11-19T05:25:39;8.20;99.90
9730;DHT22;4904;49.152;11.004;2023-11-19T05:28:06;8.30;99.90
9730;DHT22;4904;49.152;11.004;2023-11-19T05:30:33;8.30;99.90
9730;DHT22;4904;49.152;11.004;2023-11-19T05:33:00;8.30;99.90
9730;DHT22;4904;49.152;11.004;2023-11-19T05:35:27;8.30;99.90
9730;DHT22;4904;49.152;11.004;2023-11-19T05:37:55;8.30;99.90
9730;DHT22;4904;49.152;11.004;2023-11-19T05:40:22;8.40;99.90
9730;DHT22;4904;49.152;11.004;2023-11-19T05:42:49;8.40;99.90
9730;DHT22;4904;49.152;11.004;2023-11-19T05:45:16;8.40;99.90
9730;DHT22;4904;49.152;11.004;2023-11-19T05:47:43;8.40;99.90
9730;DHT22;4904;49.152;11.004;2023-11-19T05:50:10;8.50;99.90
9730;DHT22;4904;49.152;11.004;2023-11-19T05:52:37;8.50;99.90
9730;DHT22;4904;49.152;11.004;2023-11-19T05:55:06;8.50;99.90
9730;DHT22;4904;49.152;11.004;2023-11-19T05:57:35;8.60;99.90
9730;DHT22;4904;49.152;11.004;2023-11-19T06:00:03;8.70;99.90
9730;DHT22;4904;49.152;11.004;2023-11-19T06:02:32;8.70;99.90
9730;DHT22;4904;49.152;11.004;2023-11-19T06:04:59;8.70;99.90
9730;DHT22;4904;49.152;11.004;2023-11-19T06:07:26;8.70;99.90
9730;DHT22;4904;49.152;11.004;2023-11-19T06:09:53;8.70;99.90
9730;DHT22;4904;49.152;11.004;2023-11-19T06:12:22;8.80;99.90
9730;DHT22;4904;49.152;11.004;2023-11-19T06:14:48;8.90;99.90
9730;DHT22;4904;49.152;11.004;2023-11-19T06:17:15;8.90;99.90
9730;DHT22;4904;49.152;11.004;2023-11-19T06:19:43;8.90;99.90
9730;DHT22;4904;49.152;11.004;2023-11-19T06:22:10;9.10;99.90
9730;DHT22;4904;49.152;11.004;2023-11-19T06:24:37;9.00;99.90
9730;DHT22;4904;49.152;11.004;2023-11-19T06:27:04;9.00;99.90
9730;DHT22;4904;49.152;11.004;2023-11-19T06:29:32;9.00;99.90
9730;DHT22;4904;49.152;11.004;2023-11-19T06:31:59;9.00;99.90
9730;DHT22;4904;49.152;11.004;2023-11-19T06:34:26;9.00;99.90
9730;DHT22;4904;49.152;11.004;2023-11-19T06:36:53;9.00;99.90
9730;DHT22;4904;49.152;11.004;2023-11-19T06:39:20;9.00;99.90
9730;DHT22;4904;49.152;11.004;2023-11-19T06:41:47;9.10;99.90
9730;DHT22;4904;49.152;11.004;2023-11-19T06:44:14;9.00;99.90
9730;DHT22;4904;49.152;11.004;2023-11-19T06:46:43;9.10;99.90
9730;DHT22;4904;49.152;11.004;2023-11-19T06:49:09;9.10;99.90
9730;DHT22;4904;49.152;11.004;2023-11-19T06:51:41;9.20;99.90
9730;DHT22;4904;49.152;11.004;2023-11-19T06:54:09;9.20;99.90
9730;DHT22;4904;49.152;11.004;2023-11-19T06:56:36;9.20;99.90
9730;DHT22;4904;49.152;11.004;2023-11-19T06:59:03;9.10;99.90
9730;DHT22;4904;49.152;11.004;2023-11-19T07:01:34;9.10;99.90
9730;DHT22;4904;49.152;11.004;2023-11-19T07:04:04;9.10;99.90
9730;DHT22;4904;49.152;11.004;2023-11-19T07:06:34;9.10;99.90
9730;DHT22;4904;49.152;11.004;2023-11-19T07:09:02;9.20;99.90
9730;DHT22;4904;49.152;11.004;2023-11-19T07:11:35;9.10;99.90
9730;DHT22;4904;49.152;11.004;2023-11-19T07:14:02;9.20;99.90
9730;DHT22;4904;49.152;11.004;2023-11-19T07:16:29;9.20;99.90
9730;DHT22;4904;49.152;11.004;2023-11-19T07:18:56;9.20;99.90
9730;DHT22;4904;49.152;11.004;2023-11-19T07:21:25;9.30;99.90
9730;DHT22;4904;49.152;11.004;2023-11-19T07:23:53;9.40;99.90
9730;DHT22;4904;49.152;11.004;2023-11-19T07:26:21;9.50;99.90
9730;DHT22;4904;49.152;11.004;2023-11-19T07:28:48;9.60;99.90
9730;DHT22;4904;49.152;11.004;2023-11-19T07:31:15;9.70;99.90
9730;DHT22;4904;49.152;11.004;2023-11-19T07:33:44;9.80;99.90
9730;DHT22;4904;49.152;11.004;2023-11-19T07:36:11;9.90;99.90
9730;DHT22;4904;49.152;11.004;2023-11-19T07:38:39;10.00;99.90
9730;DHT22;4904;49.152;11.004;2023-11-19T07:41:06;10.10;99.90
9730;DHT22;4904;49.152;11.004;2023-11-19T07:43:35;10.20;99.90
9730;DHT22;4904;49.152;11.004;2023-11-19T07:46:02;10.20;99.90
9730;DHT22;4904;49.152;11.004;2023-11-19T07:48:30;10.30;99.90
9730;DHT22;4904;49.152;11.004;2023-11-19T07:50:57;10.30;99.90
9730;DHT22;4904;49.152;11.004;2023-11-19T07:53:24;10.30;99.90
9730;DHT22;4904;49.152;11.004;2023-11-19T07:55:52;10.30;99.90
9730;DHT22;4904;49.152;11.004;2023-11-19T07:58:19;10.30;99.90
9730;DHT22;4904;49.152;11.004;2023-11-19T08:00:46;10.40;99.90
9730;DHT22;4904;49.152;11.004;2023-11-19T08:03:13;10.40;99.90
9730;DHT22;4904;49.152;11.004;2023-11-19T08:05:40;10.30;99.90
9730;DHT22;4904;49.152;11.004;2023-11-19T08:08:07;10.50;99.90
9730;DHT22;4904;49.152;11.004;2023-11-19T08:10:34;10.40;99.90
9730;DHT22;4904;49.152;11.004;2023-11-19T08:13:02;10.60;99.90
9730;DHT22;4904;49.152;11.004;2023-11-19T08:15:29;10.60;99.90
9730;DHT22;4904;49.152;11.004;2023-11-19T08:17:56;10.60;99.90
9730;DHT22;4904;49.152;11.004;2023-11-19T08:20:22;10.70;99.90
9730;DHT22;4904;49.152;11.004;2023-11-19T08:22:50;10.70;99.90
9730;DHT22;4904;49.152;11.004;2023-11-19T08:25:17;10.70;99.90
9730;DHT22;4904;49.152;11.004;2023-11-19T08:27:44;10.80;99.90
9730;DHT22;4904;49.152;11.004;2023-11-19T08:30:13;10.90;99.90
9730;DHT22;4904;49.152;11.004;2023-11-19T08:32:40;10.90;99.90
9730;DHT22;4904;49.152;11.004;2023-11-19T08:35:08;10.90;99.90
9730;DHT22;4904;49.152;11.004;2023-11-19T08:37:35;10.80;99.90
9730;DHT22;4904;49.152;11.004;2023-11-19T08:40:02;10.90;99.90
9730;DHT22;4904;49.152;11.004;2023-11-19T08:42:30;10.90;99.90
9730;DHT22;4904;49.152;11.004;2023-11-19T08:44:56;11.00;99.90
9730;DHT22;4904;49.152;11.004;2023-11-19T08:47:25;11.00;99.90
9730;DHT22;4904;49.152;11.004;2023-11-19T08:49:52;11.00;99.90
9730;DHT22;4904;49.152;11.004;2023-11-19T08:52:19;11.10;99.90
9730;DHT22;4904;49.152;11.004;2023-11-19T08:54:46;11.10;99.90
9730;DHT22;4904;49.152;11.004;2023-11-19T08:57:12;11.10;99.90
9730;DHT22;4904;49.152;11.004;2023-11-19T08:59:39;11.20;99.90
9730;DHT22;4904;49.152;11.004;2023-11-19T09:02:07;11.20;99.90
9730;DHT22;4904;49.152;11.004;2023-11-19T09:04:36;11.30;99.90
9730;DHT22;4904;49.152;11.004;2023-11-19T09:07:03;11.30;99.90
9730;DHT22;4904;49.152;11.004;2023-11-19T09:09:30;11.30;99.90
9730;DHT22;4904;49.152;11.004;2023-11-19T09:11:57;11.40;99.90
9730;DHT22;4904;49.152;11.004;2023-11-19T09:14:23;11.40;99.90
9730;DHT22;4904;49.152;11.004;2023-11-19T09:16:51;11.50;99.90
9730;DHT22;4904;49.152;11.004;2023-11-19T09:19:18;11.60;99.90
9730;DHT22;4904;49.152;11.004;2023-11-19T09:21:47;11.60;99.90
9730;DHT22;4904;49.152;11.004;2023-11-19T09:24:14;11.60;99.90
9730;DHT22;4904;49.152;11.004;2023-11-19T09:26:41;11.70;99.90
9730;DHT22;4904;49.152;11.004;2023-11-19T09:29:09;11.70;99.90
9730;DHT22;4904;49.152;11.004;2023-11-19T09:31:37;11.80;99.90
9730;DHT22;4904;49.152;11.004;2023-11-19T09:34:04;11.80;99.90
9730;DHT22;4904;49.152;11.004;2023-11-19T09:36:32;11.80;99.90
9730;DHT22;4904;49.152;11.004;2023-11-19T09:39:00;11.80;99.90
9730;DHT22;4904;49.152;11.004;2023-11-19T09:41:27;11.90;99.90
9730;DHT22;4904;49.152;11.004;2023-11-19T09:43:54;11.80;99.90
9730;DHT22;4904;49.152;11.004;2023-11-19T09:46:22;11.80;99.90
9730;DHT22;4904;49.152;11.004;2023-11-19T09:48:52;11.90;99.90
9730;DHT22;4904;49.152;11.004;2023-11-19T09:51:20;11.90;99.90
9730;DHT22;4904;49.152;11.004;2023-11-19T09:53:47;11.90;99.90
9730;DHT22;4904;49.152;11.004;2023-11-19T09:56:16;11.90;99.90
9730;DHT22;4904;49.152;11.004;2023-11-19T09:58:43;11.90;99.90
9730;DHT22;4904;49.152;11.004;2023-11-19T10:01:10;11.90;99.90
9730;DHT22;4904;49.152;11.004;2023-11-19T10:03:39;11.80;99.90
9730;DHT22;4904;49.152;11.004;2023-11-19T10:06:07;11.80;99.90
9730;DHT22;4904;49.152;11.004;2023-11-19T10:08:36;11.80;99.90
9730;DHT22;4904;49.152;11.004;2023-11-19T10:11:05;11.80;99.90
9730;DHT22;4904;49.152;11.004;2023-11-19T10:13:34;12.00;99.90
9730;DHT22;4904;49.152;11.004;2023-11-19T10:16:06;11.90;99.90
9730;DHT22;4904;49.152;11.004;2023-11-19T10:18:33;12.00;99.90
9730;DHT22;4904;49.152;11.004;2023-11-19T10:21:04;12.20;99.90
9730;DHT22;4904;49.152;11.004;2023-11-19T10:23:47;12.30;99.90
9730;DHT22;4904;49.152;11.004;2023-11-19T10:26:14;12.30;99.90
9730;DHT22;4904;49.152;11.004;2023-11-19T10:28:43;12.40;99.90
9730;DHT22;4904;49.152;11.004;2023-11-19T10:31:11;12.50;99.90
9730;DHT22;4904;49.152;11.004;2023-11-19T10:33:39;12.70;99.90
9730;DHT22;4904;49.152;11.004;2023-11-19T10:36:07;12.70;99.90
9730;DHT22;4904;49.152;11.004;2023-11-19T10:38:34;12.90;99.90
9730;DHT22;4904;49.152;11.004;2023-11-19T10:41:01;12.90;99.90
9730;DHT22;4904;49.152;11.004;2023-11-19T10:43:27;12.80;99.90
9730;DHT22;4904;49.152;11.004;2023-11-19T10:46:09;12.80;99.90
9730;DHT22;4904;49.152;11.004;2023-11-19T10:48:36;12.70;99.90
9730;DHT22;4904;49.152;11.004;2023-11-19T10:51:05;12.80;99.90
9730;DHT22;4904;49.152;11.004;2023-11-19T10:53:36;12.80;99.90
9730;DHT22;4904;49.152;11.004;2023-11-19T10:56:06;12.70;99.90
9730;DHT22;4904;49.152;11.004;2023-11-19T10:58:37;12.70;99.90
9730;DHT22;4904;49.152;11.004;2023-11-19T11:01:13;12.70;99.90
9730;DHT22;4904;49.152;11.004;2023-11-19T11:03:44;12.70;99.90
9730;DHT22;4904;49.152;11.004;2023-11-19T11:06:13;12.80;99.90
9730;DHT22;4904;49.152;11.004;2023-11-19T11:08:41;12.70;99.90
9730;DHT22;4904;49.152;11.004;2023-11-19T11:11:10;12.80;99.90
9730;DHT22;4904;49.152;11.004;2023-11-19T11:13:42;12.80;99.90
9730;DHT22;4904;49.152;11.004;2023-11-19T11:16:10;12.80;99.90
9730;DHT22;4904;49.152;11.004;2023-11-19T11:18:37;12.90;99.90
9730;DHT22;4904;49.152;11.004;2023-11-19T11:21:08;12.90;99.90
9730;DHT22;4904;49.152;11.004;2023-11-19T11:23:58;13.00;99.90
9730;DHT22;4904;49.152;11.004;2023-11-19T11:26:41;13.10;99.90
9730;DHT22;4904;49.152;11.004;2023-11-19T11:29:20;13.10;99.90
9730;DHT22;4904;49.152;11.004;2023-11-19T11:31:57;13.10;99.90
9730;DHT22;4904;49.152;11.004;2023-11-19T11:34:46;13.10;99.90
9730;DHT22;4904;49.152;11.004;2023-11-19T11:37:19;13.20;99.90
9730;DHT22;4904;49.152;11.004;2023-11-19T11:39:50;13.20;99.90
9730;DHT22;4904;49.152;11.004;2023-11-19T11:42:35;13.20;99.90
9730;DHT22;4904;49.152;11.004;2023-11-19T11:45:04;13.20;99.90
9730;DHT22;4904;49.152;11.004;2023-11-19T11:50:54;13.30;99.90
9730;DHT22;4904;49.152;11.004;2023-11-19T11:53:25;13.30;99.90
9730;DHT22;4904;49.152;11.004;2023-11-19T11:55:56;13.20;99.90
9730;DHT22;4904;49.152;11.004;2023-11-19T11:58:42;13.10;99.90
9730;DHT22;4904;49.152;11.004;2023-11-19T12:01:14;13.10;99.90
9730;DHT22;4904;49.152;11.004;2023-11-19T12:03:46;13.10;99.90
9730;DHT22;4904;49.152;11.004;2023-11-19T12:06:14;13.10;99.90
9730;DHT22;4904;49.152;11.004;2023-11-19T12:08:41;13.10;99.90
9730;DHT22;4904;49.152;11.004;2023-11-19T12:11:08;13.30;99.90
9730;DHT22;4904;49.152;11.004;2023-11-19T12:13:53;13.20;99.90
9730;DHT22;4904;49.152;11.004;2023-11-19T12:16:24;13.20;99.90
9730;DHT22;4904;49.152;11.004;2023-11-19T12:18:53;13.30;99.90
9730;DHT22;4904;49.152;11.004;2023-11-19T12:21:31;13.40;99.90
9730;DHT22;4904;49.152;11.004;2023-11-19T12:23:59;13.50;99.90
9730;DHT22;4904;49.152;11.004;2023-11-19T12:26:42;13.60;99.90
9730;DHT22;4904;49.152;11.004;2023-11-19T12:29:09;13.70;99.90
9730;DHT22;4904;49.152;11.004;2023-11-19T12:31:37;13.80;99.90
9730;DHT22;4904;49.152;11.004;2023-11-19T12:34:08;13.90;99.90
9730;DHT22;4904;49.152;11.004;2023-11-19T12:36:39;13.80;99.90
9730;DHT22;4904;49.152;11.004;2023-11-19T12:39:07;13.70;99.90
9730;DHT22;4904;49.152;11.004;2023-11-19T12:41:50;13.60;99.90
9730;DHT22;4904;49.152;11.004;2023-11-19T12:44:17;13.50;99.90
9730;DHT22;4904;49.152;11.004;2023-11-19T12:46:44;13.40;99.90
9730;DHT22;4904;49.152;11.004;2023-11-19T12:49:11;13.30;99.90
9730;DHT22;4904;49.152;11.004;2023-11-19T12:51:39;13.10;99.90
9730;DHT22;4904;49.152;11.004;2023-11-19T12:54:06;13.10;99.90
9730;DHT22;4904;49.152;11.004;2023-11-19T12:56:33;13.10;99.90
9730;DHT22;4904;49.152;11.004;2023-11-19T12:59:10;13.10;99.90
9730;DHT22;4904;49.152;11.004;2023-11-19T13:01:38;13.00;99.90
9730;DHT22;4904;49.152;11.004;2023-11-19T13:04:16;13.10;99.90
9730;DHT22;4904;49.152;11.004;2023-11-19T13:06:46;13.10;99.90
9730;DHT22;4904;49.152;11.004;2023-11-19T13:09:22;13.10;99.90
9730;DHT22;4904;49.152;11.004;2023-11-19T13:11:51;13.10;99.90
9730;DHT22;4904;49.152;11.004;2023-11-19T13:14:18;13.00;99.90
9730;DHT22;4904;49.152;11.004;2023-11-19T13:16:45;13.00;99.90
9730;DHT22;4904;49.152;11.004;2023-11-19T13:19:13;13.10;99.90
9730;DHT22;4904;49.152;11.004;2023-11-19T13:21:42;13.30;99.90
9730;DHT22;4904;49.152;11.004;2023-11-19T13:24:13;13.30;99.90
9730;DHT22;4904;49.152;11.004;2023-11-19T13:26:40;13.40;99.90
9730;DHT22;4904;49.152;11.004;2023-11-19T13:29:07;13.50;99.90
9730;DHT22;4904;49.152;11.004;2023-11-19T13:31:36;13.60;99.90
9730;DHT22;4904;49.152;11.004;2023-11-19T13:34:03;13.80;99.90
9730;DHT22;4904;49.152;11.004;2023-11-19T13:36:32;14.00;99.90
9730;DHT22;4904;49.152;11.004;2023-11-19T13:38:59;14.20;99.90
9730;DHT22;4904;49.152;11.004;2023-11-19T13:41:28;14.30;99.90
9730;DHT22;4904;49.152;11.004;2023-11-19T13:43:55;14.50;99.90
9730;DHT22;4904;49.152;11.004;2023-11-19T13:46:22;14.60;99.90
9730;DHT22;4904;49.152;11.004;2023-11-19T13:48:49;14.60;99.90
9730;DHT22;4904;49.152;11.004;2023-11-19T13:51:17;14.60;99.90
9730;DHT22;4904;49.152;11.004;2023-11-19T13:53:44;14.30;99.90
9730;DHT22;4904;49.152;11.004;2023-11-19T13:56:11;14.20;99.90
9730;DHT22;4904;49.152;11.004;2023-11-19T13:58:39;14.00;99.90
9730;DHT22;4904;49.152;11.004;2023-11-19T14:01:06;13.90;99.90
9730;DHT22;4904;49.152;11.004;2023-11-19T14:03:34;13.90;99.90
9730;DHT22;4904;49.152;11.004;2023-11-19T14:06:01;14.00;99.90
9730;DHT22;4904;49.152;11.004;2023-11-19T14:08:28;14.10;99.90
9730;DHT22;4904;49.152;11.004;2023-11-19T14:10:55;14.20;99.90
9730;DHT22;4904;49.152;11.004;2023-11-19T14:13:23;14.40;99.90
9730;DHT22;4904;49.152;11.004;2023-11-19T14:15:54;14.40;99.90
9730;DHT22;4904;49.152;11.004;2023-11-19T14:18:21;14.30;99.90
9730;DHT22;4904;49.152;11.004;2023-11-19T14:20:48;14.30;99.90
9730;DHT22;4904;49.152;11.004;2023-11-19T14:23:15;14.50;99.90
9730;DHT22;4904;49.152;11.004;2023-11-19T14:25:43;14.60;99.90
9730;DHT22;4904;49.152;11.004;2023-11-19T14:28:10;14.80;99.90
9730;DHT22;4904;49.152;11.004;2023-11-19T14:30:37;14.70;99.90
9730;DHT22;4904;49.152;11.004;2023-11-19T14:33:05;14.70;99.90
9730;DHT22;4904;49.152;11.004;2023-11-19T14:35:32;14.70;99.90
9730;DHT22;4904;49.152;11.004;2023-11-19T14:37:59;14.80;99.90
9730;DHT22;4904;49.152;11.004;2023-11-19T14:40:30;15.00;99.90
9730;DHT22;4904;49.152;11.004;2023-11-19T14:42:57;15.10;99.90
9730;DHT22;4904;49.152;11.004;2023-11-19T14:45:24;15.00;99.90
9730;DHT22;4904;49.152;11.004;2023-11-19T14:47:51;14.90;99.90
9730;DHT22;4904;49.152;11.004;2023-11-19T14:50:21;15.00;99.90
9730;DHT22;4904;49.152;11.004;2023-11-19T14:52:48;15.10;99.90
9730;DHT22;4904;49.152;11.004;2023-11-19T14:55:14;14.90;99.90
9730;DHT22;4904;49.152;11.004;2023-11-19T14:57:41;14.80;99.90
9730;DHT22;4904;49.152;11.004;2023-11-19T15:00:10;14.70;99.90
9730;DHT22;4904;49.152;11.004;2023-11-19T15:02:40;14.50;99.90
9730;DHT22;4904;49.152;11.004;2023-11-19T15:05:08;14.40;99.90
9730;DHT22;4904;49.152;11.004;2023-11-19T15:07:38;14.30;99.90
9730;DHT22;4904;49.152;11.004;2023-11-19T15:10:06;14.20;99.90
9730;DHT22;4904;49.152;11.004;2023-11-19T15:12:36;14.00;99.90
9730;DHT22;4904;49.152;11.004;2023-11-19T15:15:07;13.90;99.90
9730;DHT22;4904;49.152;11.004;2023-11-19T15:17:34;13.70;99.90
9730;DHT22;4904;49.152;11.004;2023-11-19T15:20:02;13.60;99.90
9730;DHT22;4904;49.152;11.004;2023-11-19T15:22:29;13.50;99.90
9730;DHT22;4904;49.152;11.004;2023-11-19T15:24:58;13.40;99.90
9730;DHT22;4904;49.152;11.004;2023-11-19T15:27:25;13.30;99.90
9730;DHT22;4904;49.152;11.004;2023-11-19T15:29:54;13.30;99.90
9730;DHT22;4904;49.152;11.004;2023-11-19T15:32:21;13.30;99.90
9730;DHT22;4904;49.152;11.004;2023-11-19T15:34:48;13.20;99.90
9730;DHT22;4904;49.152;11.004;2023-11-19T15:37:15;13.20;99.90
9730;DHT22;4904;49.152;11.004;2023-11-19T15:39:42;13.10;99.90
9730;DHT22;4904;49.152;11.004;2023-11-19T15:42:10;13.00;99.90
9730;DHT22;4904;49.152;11.004;2023-11-19T15:44:37;13.00;99.90
9730;DHT22;4904;49.152;11.004;2023-11-19T15:47:05;13.00;99.90
9730;DHT22;4904;49.152;11.004;2023-11-19T15:49:31;13.00;99.90
9730;DHT22;4904;49.152;11.004;2023-11-19T15:51:58;12.90;99.90
9730;DHT22;4904;49.152;11.004;2023-11-19T15:54:26;12.90;99.90
9730;DHT22;4904;49.152;11.004;2023-11-19T15:56:53;12.90;99.90
9730;DHT22;4904;49.152;11.004;2023-11-19T15:59:21;12.90;99.90
9730;DHT22;4904;49.152;11.004;2023-11-19T16:01:48;12.80;99.90